sensor_id;sensor_type;location;lat;lon;timestamp;pressure;altitude;pressure_sealevel;temperature;humidity
67345;BME280;54230;52.402;6.276;2023-05-25T00:00:00;102630.0;;;12.8;67.4
67345;BME280;54230;52.402;6.276;2023-05-25T00:05:00;102630.0;;;12.5;68.1
67345;BME280;54230;52.402;6.276;2023-05-25T00:10:00;102630.0;;;12.4;68.7
67345;BME280;54230;52.402;6.276;2023-05-25T00:15:00;102630.0;;;12.3;69.0
67345;BME280;54230;52.402;6.276;2023-05-25T00:20:00;102640.00000000001;;;12.4;69.1
67345;BME280;54230;52.402;6.276;2023-05-25T00:25:00;102640.00000000001;;;12.5;69.1
67345;BME280;54230;52.402;6.276;2023-05-25T00:30:00;102640.00000000001;;;12.5;68.7
67345;BME280;54230;52.402;6.276;2023-05-25T00:35:00;102650.0;;;12.5;69.2
67345;BME280;54230;52.402;6.276;2023-05-25T00:40:00;102650.0;;;12.5;68.8
67345;BME280;54230;52.402;6.276;2023-05-25T00:45:01;102650.0;;;12.5;69.1
67345;BME280;54230;52.402;6.276;2023-05-25T00:50:00;102650.0;;;12.4;69.4
67345;BME280;54230;52.402;6.276;2023-05-25T00:55:01;102650.0;;;12.4;69.5
67345;BME280;54230;52.402;6.276;2023-05-25T01:00:01;102659.99999999999;;;12.4;69.4
67345;BME280;54230;52.402;6.276;2023-05-25T01:05:01;102650.0;;;12.3;69.5
67345;BME280;54230;52.402;6.276;2023-05-25T01:10:03;102659.99999999999;;;12.1;70.1
67345;BME280;54230;52.402;6.276;2023-05-25T01:15:00;102659.99999999999;;;12.2;70.4
67345;BME280;54230;52.402;6.276;2023-05-25T01:20:00;102659.99999999999;;;12.3;70.2
67345;BME280;54230;52.402;6.276;2023-05-25T01:25:04;102659.99999999999;;;12.3;70.3
67345;BME280;54230;52.402;6.276;2023-05-25T01:30:01;102659.99999999999;;;12.2;70.3
67345;BME280;54230;52.402;6.276;2023-05-25T01:35:00;102659.99999999999;;;12.2;70.3
67345;BME280;54230;52.402;6.276;2023-05-25T01:40:00;102659.99999999999;;;12.1;70.6
67345;BME280;54230;52.402;6.276;2023-05-25T01:45:00;102659.99999999999;;;12.1;70.8
67345;BME280;54230;52.402;6.276;2023-05-25T01:50:05;102659.99999999999;;;12.0;70.4
67345;BME280;54230;52.402;6.276;2023-05-25T01:55:05;102650.0;;;11.9;69.8
67345;BME280;54230;52.402;6.276;2023-05-25T02:00:01;102659.99999999999;;;12.0;70.6
67345;BME280;54230;52.402;6.276;2023-05-25T02:05:00;102659.99999999999;;;12.0;71.0
67345;BME280;54230;52.402;6.276;2023-05-25T02:10:00;102659.99999999999;;;11.9;70.2
67345;BME280;54230;52.402;6.276;2023-05-25T02:15:00;102670.0;;;12.0;71.3
67345;BME280;54230;52.402;6.276;2023-05-25T02:20:00;102659.99999999999;;;12.0;70.9
67345;BME280;54230;52.402;6.276;2023-05-25T02:25:00;102670.0;;;12.0;71.4
67345;BME280;54230;52.402;6.276;2023-05-25T02:30:00;102670.0;;;12.0;71.6
67345;BME280;54230;52.402;6.276;2023-05-25T02:35:00;102670.0;;;11.9;71.8
67345;BME280;54230;52.402;6.276;2023-05-25T02:40:00;102670.0;;;11.8;72.1
67345;BME280;54230;52.402;6.276;2023-05-25T02:45:00;102680.0;;;11.8;71.2
67345;BME280;54230;52.402;6.276;2023-05-25T02:50:00;102690.00000000001;;;11.7;71.8
67345;BME280;54230;52.402;6.276;2023-05-25T02:55:00;102690.00000000001;;;11.6;71.3
67345;BME280;54230;52.402;6.276;2023-05-25T03:00:00;102690.00000000001;;;11.6;71.8
67345;BME280;54230;52.402;6.276;2023-05-25T03:05:00;102690.00000000001;;;11.6;72.0
67345;BME280;54230;52.402;6.276;2023-05-25T03:10:00;102690.00000000001;;;11.6;72.2
67345;BME280;54230;52.402;6.276;2023-05-25T03:15:00;102690.00000000001;;;11.6;71.9
67345;BME280;54230;52.402;6.276;2023-05-25T03:20:00;102690.00000000001;;;11.5;71.3
67345;BME280;54230;52.402;6.276;2023-05-25T03:25:00;102690.00000000001;;;11.4;71.7
67345;BME280;54230;52.402;6.276;2023-05-25T03:30:00;102700.0;;;11.4;72.8
67345;BME280;54230;52.402;6.276;2023-05-25T03:35:00;102700.0;;;11.4;72.7
67345;BME280;54230;52.402;6.276;2023-05-25T03:40:00;102709.99999999999;;;11.5;72.7
67345;BME280;54230;52.402;6.276;2023-05-25T03:45:00;102700.0;;;11.6;72.9
67345;BME280;54230;52.402;6.276;2023-05-25T03:50:00;102709.99999999999;;;11.6;72.8
67345;BME280;54230;52.402;6.276;2023-05-25T03:55:00;102709.99999999999;;;11.8;72.8
67345;BME280;54230;52.402;6.276;2023-05-25T04:00:00;102700.0;;;11.8;72.3
67345;BME280;54230;52.402;6.276;2023-05-25T04:05:00;102709.99999999999;;;11.9;72.0
67345;BME280;54230;52.402;6.276;2023-05-25T04:10:00;102720.0;;;11.9;72.1
67345;BME280;54230;52.402;6.276;2023-05-25T04:15:00;102720.0;;;11.8;72.2
67345;BME280;54230;52.402;6.276;2023-05-25T04:20:00;102709.99999999999;;;11.9;72.4
67345;BME280;54230;52.402;6.276;2023-05-25T04:25:00;102709.99999999999;;;11.9;72.4
67345;BME280;54230;52.402;6.276;2023-05-25T04:30:00;102720.0;;;12.0;71.7
67345;BME280;54230;52.402;6.276;2023-05-25T04:35:00;102720.0;;;12.0;72.0
67345;BME280;54230;52.402;6.276;2023-05-25T04:40:00;102709.99999999999;;;12.0;72.1
67345;BME280;54230;52.402;6.276;2023-05-25T04:45:00;102720.0;;;12.0;72.0
67345;BME280;54230;52.402;6.276;2023-05-25T04:50:00;102720.0;;;11.9;72.1
67345;BME280;54230;52.402;6.276;2023-05-25T04:55:00;102730.0;;;12.0;72.7
67345;BME280;54230;52.402;6.276;2023-05-25T05:00:00;102740.00000000001;;;12.1;72.8
67345;BME280;54230;52.402;6.276;2023-05-25T05:05:00;102740.00000000001;;;12.3;72.4
67345;BME280;54230;52.402;6.276;2023-05-25T05:10:00;102740.00000000001;;;12.5;72.0
67345;BME280;54230;52.402;6.276;2023-05-25T05:15:00;102750.0;;;12.8;71.5
67345;BME280;54230;52.402;6.276;2023-05-25T05:20:00;102750.0;;;13.1;71.5
67345;BME280;54230;52.402;6.276;2023-05-25T05:25:00;102759.99999999999;;;13.4;70.5
67345;BME280;54230;52.402;6.276;2023-05-25T05:30:00;102770.0;;;13.6;70.1
67345;BME280;54230;52.402;6.276;2023-05-25T05:35:00;102759.99999999999;;;13.6;69.6
67345;BME280;54230;52.402;6.276;2023-05-25T05:40:00;102770.0;;;13.9;69.7
67345;BME280;54230;52.402;6.276;2023-05-25T05:45:00;102790.00000000001;;;13.9;69.5
67345;BME280;54230;52.402;6.276;2023-05-25T05:50:00;102790.00000000001;;;14.0;69.2
67345;BME280;54230;52.402;6.276;2023-05-25T05:55:00;102790.00000000001;;;14.1;69.3
67345;BME280;54230;52.402;6.276;2023-05-25T06:00:00;102790.00000000001;;;14.3;68.9
67345;BME280;54230;52.402;6.276;2023-05-25T06:05:00;102800.0;;;14.5;68.9
67345;BME280;54230;52.402;6.276;2023-05-25T06:10:00;102800.0;;;14.9;68.4
67345;BME280;54230;52.402;6.276;2023-05-25T06:15:00;102809.99999999999;;;15.2;67.9
67345;BME280;54230;52.402;6.276;2023-05-25T06:20:00;102809.99999999999;;;15.4;67.4
67345;BME280;54230;52.402;6.276;2023-05-25T06:25:00;102820.0;;;15.7;67.0
67345;BME280;54230;52.402;6.276;2023-05-25T06:30:00;102820.0;;;15.9;66.5
67345;BME280;54230;52.402;6.276;2023-05-25T06:35:00;102820.0;;;16.0;65.9
67345;BME280;54230;52.402;6.276;2023-05-25T06:40:00;102820.0;;;16.2;65.5
67345;BME280;54230;52.402;6.276;2023-05-25T06:45:00;102830.0;;;16.3;64.9
67345;BME280;54230;52.402;6.276;2023-05-25T06:50:00;102830.0;;;16.3;64.5
67345;BME280;54230;52.402;6.276;2023-05-25T06:55:00;102840.00000000001;;;16.3;64.6
67345;BME280;54230;52.402;6.276;2023-05-25T07:00:00;102840.00000000001;;;16.4;64.5
67345;BME280;54230;52.402;6.276;2023-05-25T07:05:00;102830.0;;;16.7;63.3
67345;BME280;54230;52.402;6.276;2023-05-25T07:10:02;102840.00000000001;;;17.1;61.9
67345;BME280;54230;52.402;6.276;2023-05-25T07:15:00;102840.00000000001;;;17.2;61.1
67345;BME280;54230;52.402;6.276;2023-05-25T07:20:00;102840.00000000001;;;17.1;59.3
67345;BME280;54230;52.402;6.276;2023-05-25T07:25:00;102850.0;;;17.3;58.6
67345;BME280;54230;52.402;6.276;2023-05-25T07:30:00;102850.0;;;17.3;57.9
67345;BME280;54230;52.402;6.276;2023-05-25T07:35:00;102859.99999999999;;;17.2;57.3
67345;BME280;54230;52.402;6.276;2023-05-25T07:40:00;102859.99999999999;;;17.5;56.5
67345;BME280;54230;52.402;6.276;2023-05-25T07:45:00;102859.99999999999;;;17.0;55.9
67345;BME280;54230;52.402;6.276;2023-05-25T07:50:00;102859.99999999999;;;16.8;56.8
67345;BME280;54230;52.402;6.276;2023-05-25T07:55:00;102850.0;;;17.0;57.1
67345;BME280;54230;52.402;6.276;2023-05-25T08:00:00;102859.99999999999;;;17.6;55.9
67345;BME280;54230;52.402;6.276;2023-05-25T08:05:00;102870.0;;;17.9;54.4
67345;BME280;54230;52.402;6.276;2023-05-25T08:10:01;102870.0;;;18.2;54.2
67345;BME280;54230;52.402;6.276;2023-05-25T08:15:00;102880.0;;;18.5;53.2
67345;BME280;54230;52.402;6.276;2023-05-25T08:20:00;102880.0;;;18.5;51.9
67345;BME280;54230;52.402;6.276;2023-05-25T08:25:02;102890.00000000001;;;18.3;52.3
67345;BME280;54230;52.402;6.276;2023-05-25T08:30:00;102890.00000000001;;;18.5;51.9
67345;BME280;54230;52.402;6.276;2023-05-25T08:35:00;102890.00000000001;;;18.4;52.2
67345;BME280;54230;52.402;6.276;2023-05-25T08:40:00;102890.00000000001;;;18.5;52.4
67345;BME280;54230;52.402;6.276;2023-05-25T08:45:00;102890.00000000001;;;18.6;51.7
67345;BME280;54230;52.402;6.276;2023-05-25T08:50:02;102900.0;;;19.2;49.6
67345;BME280;54230;52.402;6.276;2023-05-25T08:55:03;102900.0;;;19.4;49.0
67345;BME280;54230;52.402;6.276;2023-05-25T09:00:03;102890.00000000001;;;19.4;49.1
67345;BME280;54230;52.402;6.276;2023-05-25T09:05:01;102890.00000000001;;;19.3;48.5
67345;BME280;54230;52.402;6.276;2023-05-25T09:10:01;102890.00000000001;;;19.9;46.9
67345;BME280;54230;52.402;6.276;2023-05-25T09:15:00;102890.00000000001;;;19.9;45.9
67345;BME280;54230;52.402;6.276;2023-05-25T09:20:00;102900.0;;;20.0;44.6
67345;BME280;54230;52.402;6.276;2023-05-25T09:25:02;102900.0;;;20.3;44.3
67345;BME280;54230;52.402;6.276;2023-05-25T09:30:00;102900.0;;;20.5;44.5
67345;BME280;54230;52.402;6.276;2023-05-25T09:35:08;102900.0;;;20.5;44.8
67345;BME280;54230;52.402;6.276;2023-05-25T09:40:00;102900.0;;;20.5;44.9
67345;BME280;54230;52.402;6.276;2023-05-25T09:45:00;102900.0;;;20.4;44.7
67345;BME280;54230;52.402;6.276;2023-05-25T09:50:01;102900.0;;;20.9;43.5
67345;BME280;54230;52.402;6.276;2023-05-25T09:55:00;102909.99999999999;;;21.0;44.0
67345;BME280;54230;52.402;6.276;2023-05-25T10:00:00;102900.0;;;21.0;44.3
67345;BME280;54230;52.402;6.276;2023-05-25T10:05:00;102909.99999999999;;;20.6;42.8
67345;BME280;54230;52.402;6.276;2023-05-25T10:10:03;102909.99999999999;;;20.6;42.4
67345;BME280;54230;52.402;6.276;2023-05-25T10:15:02;102909.99999999999;;;20.6;42.6
67345;BME280;54230;52.402;6.276;2023-05-25T10:20:02;102909.99999999999;;;20.3;42.6
67345;BME280;54230;52.402;6.276;2023-05-25T10:25:05;102920.0;;;20.3;42.7
67345;BME280;54230;52.402;6.276;2023-05-25T10:30:00;102909.99999999999;;;20.0;42.9
67345;BME280;54230;52.402;6.276;2023-05-25T10:35:00;102920.0;;;19.7;43.2
67345;BME280;54230;52.402;6.276;2023-05-25T10:40:00;102920.0;;;19.7;43.3
67345;BME280;54230;52.402;6.276;2023-05-25T10:45:00;102920.0;;;20.0;43.2
67345;BME280;54230;52.402;6.276;2023-05-25T10:50:00;102920.0;;;20.3;43.4
67345;BME280;54230;52.402;6.276;2023-05-25T10:55:01;102909.99999999999;;;20.4;42.1
67345;BME280;54230;52.402;6.276;2023-05-25T11:00:02;102930.0;;;20.8;42.3
67345;BME280;54230;52.402;6.276;2023-05-25T11:10:00;102930.0;;;21.2;41.6
67345;BME280;54230;52.402;6.276;2023-05-25T11:15:10;102920.0;;;20.9;42.0
67345;BME280;54230;52.402;6.276;2023-05-25T11:20:00;102920.0;;;21.3;40.9
67345;BME280;54230;52.402;6.276;2023-05-25T11:25:01;102909.99999999999;;;21.2;40.9
67345;BME280;54230;52.402;6.276;2023-05-25T11:30:00;102909.99999999999;;;21.3;41.2
67345;BME280;54230;52.402;6.276;2023-05-25T11:35:00;102900.0;;;21.1;41.2
67345;BME280;54230;52.402;6.276;2023-05-25T11:40:06;102900.0;;;21.6;40.0
67345;BME280;54230;52.402;6.276;2023-05-25T11:45:00;102890.00000000001;;;22.1;38.1
67345;BME280;54230;52.402;6.276;2023-05-25T11:50:00;102890.00000000001;;;22.0;38.0
67345;BME280;54230;52.402;6.276;2023-05-25T11:55:00;102909.99999999999;;;21.6;40.0
67345;BME280;54230;52.402;6.276;2023-05-25T12:00:00;102900.0;;;21.2;40.5
67345;BME280;54230;52.402;6.276;2023-05-25T12:05:00;102900.0;;;20.9;39.9
67345;BME280;54230;52.402;6.276;2023-05-25T12:10:04;102890.00000000001;;;20.8;39.5
67345;BME280;54230;52.402;6.276;2023-05-25T12:20:00;102880.0;;;21.7;37.9
67345;BME280;54230;52.402;6.276;2023-05-25T12:25:00;102870.0;;;21.9;37.3
67345;BME280;54230;52.402;6.276;2023-05-25T12:30:00;102870.0;;;21.5;37.5
67345;BME280;54230;52.402;6.276;2023-05-25T12:35:00;102870.0;;;21.6;38.0
67345;BME280;54230;52.402;6.276;2023-05-25T12:40:00;102859.99999999999;;;21.2;38.3
67345;BME280;54230;52.402;6.276;2023-05-25T12:45:00;102870.0;;;20.8;39.2
67345;BME280;54230;52.402;6.276;2023-05-25T12:50:10;102870.0;;;20.9;38.9
67345;BME280;54230;52.402;6.276;2023-05-25T12:55:17;102870.0;;;21.0;38.2
67345;BME280;54230;52.402;6.276;2023-05-25T13:00:00;102870.0;;;20.8;37.9
67345;BME280;54230;52.402;6.276;2023-05-25T13:05:00;102859.99999999999;;;20.6;38.3
67345;BME280;54230;52.402;6.276;2023-05-25T13:10:00;102859.99999999999;;;21.3;37.4
67345;BME280;54230;52.402;6.276;2023-05-25T13:15:00;102859.99999999999;;;21.6;36.3
67345;BME280;54230;52.402;6.276;2023-05-25T13:20:00;102859.99999999999;;;21.1;37.7
67345;BME280;54230;52.402;6.276;2023-05-25T13:25:00;102850.0;;;21.0;37.8
67345;BME280;54230;52.402;6.276;2023-05-25T13:30:00;102850.0;;;21.4;37.0
67345;BME280;54230;52.402;6.276;2023-05-25T13:35:00;102840.00000000001;;;21.8;37.5
67345;BME280;54230;52.402;6.276;2023-05-25T13:40:00;102830.0;;;21.9;35.8
67345;BME280;54230;52.402;6.276;2023-05-25T13:45:00;102840.00000000001;;;22.4;36.1
67345;BME280;54230;52.402;6.276;2023-05-25T13:50:00;102840.00000000001;;;22.9;34.8
67345;BME280;54230;52.402;6.276;2023-05-25T13:55:00;102840.00000000001;;;23.0;34.4
67345;BME280;54230;52.402;6.276;2023-05-25T14:00:00;102830.0;;;23.9;33.1
67345;BME280;54230;52.402;6.276;2023-05-25T14:05:00;102830.0;;;23.9;32.4
67345;BME280;54230;52.402;6.276;2023-05-25T14:10:00;102820.0;;;23.8;32.9
67345;BME280;54230;52.402;6.276;2023-05-25T14:15:00;102820.0;;;24.5;31.8
67345;BME280;54230;52.402;6.276;2023-05-25T14:20:00;102820.0;;;24.3;31.9
67345;BME280;54230;52.402;6.276;2023-05-25T14:25:00;102820.0;;;24.9;31.1
67345;BME280;54230;52.402;6.276;2023-05-25T14:30:00;102820.0;;;24.3;30.8
67345;BME280;54230;52.402;6.276;2023-05-25T14:35:00;102820.0;;;24.4;30.8
67345;BME280;54230;52.402;6.276;2023-05-25T14:40:00;102820.0;;;24.4;31.3
67345;BME280;54230;52.402;6.276;2023-05-25T14:45:00;102820.0;;;24.0;31.1
67345;BME280;54230;52.402;6.276;2023-05-25T14:50:00;102820.0;;;24.2;31.5
67345;BME280;54230;52.402;6.276;2023-05-25T14:55:00;102809.99999999999;;;24.1;32.9
67345;BME280;54230;52.402;6.276;2023-05-25T15:00:00;102809.99999999999;;;24.0;34.0
67345;BME280;54230;52.402;6.276;2023-05-25T15:05:00;102809.99999999999;;;24.3;34.1
67345;BME280;54230;52.402;6.276;2023-05-25T15:10:00;102809.99999999999;;;24.2;32.9
67345;BME280;54230;52.402;6.276;2023-05-25T15:15:00;102820.0;;;24.1;33.6
67345;BME280;54230;52.402;6.276;2023-05-25T15:20:00;102809.99999999999;;;24.3;33.4
67345;BME280;54230;52.402;6.276;2023-05-25T15:25:00;102820.0;;;24.6;31.9
67345;BME280;54230;52.402;6.276;2023-05-25T15:30:00;102820.0;;;24.5;32.4
67345;BME280;54230;52.402;6.276;2023-05-25T15:35:00;102809.99999999999;;;24.3;33.3
67345;BME280;54230;52.402;6.276;2023-05-25T15:40:00;102809.99999999999;;;24.5;32.3
67345;BME280;54230;52.402;6.276;2023-05-25T15:45:00;102809.99999999999;;;24.5;32.4
67345;BME280;54230;52.402;6.276;2023-05-25T15:50:00;102809.99999999999;;;24.6;31.9
67345;BME280;54230;52.402;6.276;2023-05-25T15:55:00;102809.99999999999;;;24.5;32.1
67345;BME280;54230;52.402;6.276;2023-05-25T16:00:00;102809.99999999999;;;24.3;33.0
67345;BME280;54230;52.402;6.276;2023-05-25T16:05:00;102820.0;;;24.2;33.5
67345;BME280;54230;52.402;6.276;2023-05-25T16:10:00;102820.0;;;24.2;32.6
67345;BME280;54230;52.402;6.276;2023-05-25T16:15:00;102809.99999999999;;;24.2;32.8
67345;BME280;54230;52.402;6.276;2023-05-25T16:20:00;102820.0;;;24.2;32.8
67345;BME280;54230;52.402;6.276;2023-05-25T16:25:00;102820.0;;;23.8;33.1
67345;BME280;54230;52.402;6.276;2023-05-25T16:30:00;102840.00000000001;;;23.4;33.0
67345;BME280;54230;52.402;6.276;2023-05-25T16:35:00;102820.0;;;23.5;33.3
67345;BME280;54230;52.402;6.276;2023-05-25T16:40:00;102809.99999999999;;;23.4;33.3
67345;BME280;54230;52.402;6.276;2023-05-25T16:45:00;102830.0;;;23.4;33.1
67345;BME280;54230;52.402;6.276;2023-05-25T16:50:00;102820.0;;;23.5;33.2
67345;BME280;54230;52.402;6.276;2023-05-25T16:55:00;102820.0;;;23.1;34.1
67345;BME280;54230;52.402;6.276;2023-05-25T17:00:00;102820.0;;;23.3;33.7
67345;BME280;54230;52.402;6.276;2023-05-25T17:05:00;102830.0;;;23.0;34.1
67345;BME280;54230;52.402;6.276;2023-05-25T17:10:00;102830.0;;;23.1;33.6
67345;BME280;54230;52.402;6.276;2023-05-25T17:15:00;102840.00000000001;;;23.2;34.0
67345;BME280;54230;52.402;6.276;2023-05-25T17:20:00;102840.00000000001;;;23.3;34.0
67345;BME280;54230;52.402;6.276;2023-05-25T17:25:00;102840.00000000001;;;23.1;33.7
67345;BME280;54230;52.402;6.276;2023-05-25T17:30:00;102840.00000000001;;;22.7;34.8
67345;BME280;54230;52.402;6.276;2023-05-25T17:35:00;102840.00000000001;;;22.5;35.0
67345;BME280;54230;52.402;6.276;2023-05-25T17:40:00;102850.0;;;22.0;36.3
67345;BME280;54230;52.402;6.276;2023-05-25T17:45:01;102850.0;;;21.5;37.3
67345;BME280;54230;52.402;6.276;2023-05-25T17:50:00;102859.99999999999;;;21.0;38.1
67345;BME280;54230;52.402;6.276;2023-05-25T17:55:00;102870.0;;;20.6;38.7
67345;BME280;54230;52.402;6.276;2023-05-25T18:00:00;102859.99999999999;;;20.2;39.3
67345;BME280;54230;52.402;6.276;2023-05-25T18:05:00;102859.99999999999;;;19.9;39.5
67345;BME280;54230;52.402;6.276;2023-05-25T18:10:00;102859.99999999999;;;19.5;40.5
67345;BME280;54230;52.402;6.276;2023-05-25T18:15:00;102859.99999999999;;;19.2;40.7
67345;BME280;54230;52.402;6.276;2023-05-25T18:20:00;102859.99999999999;;;18.8;41.4
67345;BME280;54230;52.402;6.276;2023-05-25T18:25:00;102859.99999999999;;;18.4;42.0
67345;BME280;54230;52.402;6.276;2023-05-25T18:30:00;102859.99999999999;;;18.2;42.6
67345;BME280;54230;52.402;6.276;2023-05-25T18:35:00;102870.0;;;18.0;44.5
67345;BME280;54230;52.402;6.276;2023-05-25T18:40:00;102880.0;;;18.0;45.2
67345;BME280;54230;52.402;6.276;2023-05-25T18:45:00;102880.0;;;17.8;45.7
67345;BME280;54230;52.402;6.276;2023-05-25T18:50:00;102880.0;;;17.6;46.1
67345;BME280;54230;52.402;6.276;2023-05-25T18:55:00;102890.00000000001;;;17.4;45.7
67345;BME280;54230;52.402;6.276;2023-05-25T19:00:00;102900.0;;;17.1;46.6
67345;BME280;54230;52.402;6.276;2023-05-25T19:05:00;102890.00000000001;;;16.9;47.8
67345;BME280;54230;52.402;6.276;2023-05-25T19:10:00;102900.0;;;16.7;47.8
67345;BME280;54230;52.402;6.276;2023-05-25T19:15:00;102900.0;;;16.7;47.9
67345;BME280;54230;52.402;6.276;2023-05-25T19:20:00;102900.0;;;16.5;47.8
67345;BME280;54230;52.402;6.276;2023-05-25T19:25:00;102900.0;;;16.3;48.7
67345;BME280;54230;52.402;6.276;2023-05-25T19:30:00;102909.99999999999;;;16.1;49.2
67345;BME280;54230;52.402;6.276;2023-05-25T19:35:00;102909.99999999999;;;16.0;49.5
67345;BME280;54230;52.402;6.276;2023-05-25T19:40:00;102909.99999999999;;;15.9;50.0
67345;BME280;54230;52.402;6.276;2023-05-25T19:45:00;102920.0;;;15.8;50.2
67345;BME280;54230;52.402;6.276;2023-05-25T19:50:00;102930.0;;;15.6;50.7
67345;BME280;54230;52.402;6.276;2023-05-25T19:55:00;102930.0;;;15.5;51.3
67345;BME280;54230;52.402;6.276;2023-05-25T20:00:00;102940.00000000001;;;15.3;51.1
67345;BME280;54230;52.402;6.276;2023-05-25T20:05:00;102940.00000000001;;;15.2;52.1
67345;BME280;54230;52.402;6.276;2023-05-25T20:10:00;102950.0;;;15.1;52.0
67345;BME280;54230;52.402;6.276;2023-05-25T20:15:00;102950.0;;;15.0;52.0
67345;BME280;54230;52.402;6.276;2023-05-25T20:20:00;102959.99999999999;;;14.8;53.0
67345;BME280;54230;52.402;6.276;2023-05-25T20:25:01;102950.0;;;14.8;53.3
67345;BME280;54230;52.402;6.276;2023-05-25T20:30:00;102959.99999999999;;;14.6;53.0
67345;BME280;54230;52.402;6.276;2023-05-25T20:35:00;102959.99999999999;;;14.2;53.7
67345;BME280;54230;52.402;6.276;2023-05-25T20:40:00;102970.0;;;14.0;54.4
67345;BME280;54230;52.402;6.276;2023-05-25T20:45:00;102970.0;;;13.9;55.0
67345;BME280;54230;52.402;6.276;2023-05-25T20:50:00;102959.99999999999;;;13.7;55.5
67345;BME280;54230;52.402;6.276;2023-05-25T20:55:00;102980.0;;;13.7;55.8
67345;BME280;54230;52.402;6.276;2023-05-25T21:00:00;102990.00000000001;;;13.5;56.5
67345;BME280;54230;52.402;6.276;2023-05-25T21:05:00;102990.00000000001;;;13.4;57.1
67345;BME280;54230;52.402;6.276;2023-05-25T21:10:00;102980.0;;;13.2;57.6
67345;BME280;54230;52.402;6.276;2023-05-25T21:15:00;102959.99999999999;;;13.0;58.0
67345;BME280;54230;52.402;6.276;2023-05-25T21:20:00;102990.00000000001;;;13.0;58.7
67345;BME280;54230;52.402;6.276;2023-05-25T21:25:00;102990.00000000001;;;13.0;59.0
67345;BME280;54230;52.402;6.276;2023-05-25T21:30:00;102990.00000000001;;;12.9;59.0
67345;BME280;54230;52.402;6.276;2023-05-25T21:35:00;102990.00000000001;;;12.8;59.6
67345;BME280;54230;52.402;6.276;2023-05-25T21:40:00;103000.0;;;12.8;59.8
67345;BME280;54230;52.402;6.276;2023-05-25T21:45:00;103000.0;;;12.7;60.1
67345;BME280;54230;52.402;6.276;2023-05-25T21:50:00;103000.0;;;12.6;60.3
67345;BME280;54230;52.402;6.276;2023-05-25T21:55:00;103000.0;;;12.5;60.7
67345;BME280;54230;52.402;6.276;2023-05-25T22:00:00;103009.99999999999;;;12.5;60.9
67345;BME280;54230;52.402;6.276;2023-05-25T22:05:00;103009.99999999999;;;12.4;61.1
67345;BME280;54230;52.402;6.276;2023-05-25T22:10:00;103009.99999999999;;;12.4;61.3
67345;BME280;54230;52.402;6.276;2023-05-25T22:15:00;103000.0;;;12.3;61.6
67345;BME280;54230;52.402;6.276;2023-05-25T22:20:00;102990.00000000001;;;12.1;62.0
67345;BME280;54230;52.402;6.276;2023-05-25T22:25:00;102990.00000000001;;;11.9;62.6
67345;BME280;54230;52.402;6.276;2023-05-25T22:30:00;103009.99999999999;;;12.0;62.7
67345;BME280;54230;52.402;6.276;2023-05-25T22:35:00;103000.0;;;12.0;63.5
67345;BME280;54230;52.402;6.276;2023-05-25T22:40:00;103000.0;;;12.2;63.7
67345;BME280;54230;52.402;6.276;2023-05-25T22:45:00;103000.0;;;12.4;63.5
67345;BME280;54230;52.402;6.276;2023-05-25T22:50:00;103000.0;;;12.4;63.2
67345;BME280;54230;52.402;6.276;2023-05-25T22:55:00;103000.0;;;12.4;63.3
67345;BME280;54230;52.402;6.276;2023-05-25T23:00:00;103000.0;;;12.5;63.4
67345;BME280;54230;52.402;6.276;2023-05-25T23:05:00;103000.0;;;12.4;62.9
67345;BME280;54230;52.402;6.276;2023-05-25T23:10:01;103000.0;;;12.4;63.2
67345;BME280;54230;52.402;6.276;2023-05-25T23:15:00;102990.00000000001;;;12.4;63.3
67345;BME280;54230;52.402;6.276;2023-05-25T23:20:00;102990.00000000001;;;12.3;63.6
67345;BME280;54230;52.402;6.276;2023-05-25T23:25:00;103000.0;;;12.2;63.8
67345;BME280;54230;52.402;6.276;2023-05-25T23:30:00;102990.00000000001;;;12.0;64.1
67345;BME280;54230;52.402;6.276;2023-05-25T23:35:00;103000.0;;;11.9;64.8
67345;BME280;54230;52.402;6.276;2023-05-25T23:40:00;102990.00000000001;;;11.9;65.3
67345;BME280;54230;52.402;6.276;2023-05-25T23:45:00;103000.0;;;11.8;65.1
67345;BME280;54230;52.402;6.276;2023-05-25T23:50:01;103000.0;;;11.8;65.4
67345;BME280;54230;52.402;6.276;2023-05-25T23:55:00;103009.99999999999;;;11.8;65.6
